createdAt,value
2022-08-16T00:02:30.516Z,61.34
2022-08-16T00:04:59.868Z,61.38
2022-08-16T00:07:29.158Z,61.36
2022-08-16T00:09:57.495Z,61.55
2022-08-16T00:12:26.725Z,61.67
2022-08-16T00:14:56.909Z,62.16
2022-08-16T00:17:25.263Z,63.64
2022-08-16T00:19:54.929Z,63.03
2022-08-16T00:22:25.110Z,62.57
2022-08-16T00:24:55.546Z,62.93
2022-08-16T00:27:23.528Z,62.78
2022-08-16T00:30:00.590Z,63.22
2022-08-16T00:32:35.270Z,63.26
2022-08-16T00:35:01.903Z,62.43
2022-08-16T00:37:57.296Z,61.20
2022-08-16T00:40:34.307Z,63.03
2022-08-16T00:43:04.372Z,63.96
2022-08-16T00:45:36.240Z,65.38
2022-08-16T00:48:30.610Z,64.36
2022-08-16T00:50:56.726Z,63.90
2022-08-16T00:53:23.575Z,65.60
2022-08-16T00:55:54.958Z,65.16
2022-08-16T00:58:34.351Z,65.23
2022-08-16T01:01:02.149Z,65.88
2022-08-16T01:03:35.033Z,66.06
2022-08-16T01:06:39.679Z,65.69
2022-08-16T01:08:52.831Z,65.22
2022-08-16T01:11:25.060Z,65.55
2022-08-16T01:13:59.214Z,66.28
2022-08-16T01:16:28.839Z,67.24
2022-08-16T01:19:17.619Z,65.48
2022-08-16T01:21:54.319Z,65.99
2022-08-16T01:24:53.992Z,67.33
2022-08-16T01:27:31.607Z,68.30
2022-08-16T01:30:20.292Z,68.74
2022-08-16T01:33:01.872Z,67.33
2022-08-16T01:35:36.250Z,67.42
2022-08-16T01:38:34.351Z,68.87
2022-08-16T01:41:13.405Z,68.57
2022-08-16T01:43:47.822Z,68.27
2022-08-16T01:46:39.632Z,67.63
2022-08-16T01:49:14.363Z,67.64
2022-08-16T01:51:44.585Z,67.45
2022-08-16T01:54:13.475Z,67.91
2022-08-16T01:56:43.144Z,68.48
2022-08-16T01:59:15.426Z,69.32
2022-08-16T02:01:43.094Z,69.36
2022-08-16T02:04:11.177Z,68.52
2022-08-16T02:06:40.510Z,68.88
2022-08-16T02:09:14.769Z,68.78
2022-08-16T02:11:53.206Z,69.30
2022-08-16T02:14:26.625Z,69.57
2022-08-16T02:16:56.706Z,69.96
2022-08-16T02:19:59.859Z,69.07
2022-08-16T02:22:35.076Z,70.37
2022-08-16T02:25:10.651Z,69.77
2022-08-16T02:27:40.945Z,70.77
2022-08-16T02:30:37.014Z,71.21
2022-08-16T02:33:01.083Z,71.46
2022-08-16T02:35:29.679Z,70.77
2022-08-16T02:37:56.454Z,71.04
2022-08-16T02:40:28.758Z,70.52
2022-08-16T02:42:56.355Z,70.85
2022-08-16T02:45:27.813Z,71.30
2022-08-16T02:48:00.183Z,71.98
2022-08-16T02:50:55.093Z,71.06
2022-08-16T02:53:18.252Z,71.51
2022-08-16T02:55:50.409Z,70.69
2022-08-16T02:58:17.337Z,70.59
2022-08-16T03:00:45.563Z,71.05
2022-08-16T03:03:17.923Z,71.84
2022-08-16T03:05:50.008Z,71.69
2022-08-16T03:08:50.873Z,72.64
2022-08-16T03:11:16.931Z,72.31
2022-08-16T03:13:56.472Z,73.98
2022-08-16T03:16:38.182Z,73.88
2022-08-16T03:19:07.380Z,73.05
2022-08-16T03:21:37.755Z,72.83
2022-08-16T03:24:28.454Z,74.75
2022-08-16T03:26:57.878Z,74.75
2022-08-16T03:29:29.869Z,74.83
2022-08-16T03:31:58.963Z,73.90
2022-08-16T03:34:26.477Z,73.25
2022-08-16T03:36:53.239Z,73.35
2022-08-16T03:39:20.329Z,74.01
2022-08-16T03:41:50.313Z,73.68
2022-08-16T03:44:44.207Z,73.29
2022-08-16T03:47:04.754Z,73.71
2022-08-16T03:49:37.408Z,75.34
2022-08-16T03:52:04.582Z,75.53
2022-08-16T03:54:31.202Z,75.19
2022-08-16T03:56:59.012Z,74.42
2022-08-16T03:59:29.284Z,73.76
2022-08-16T04:01:56.617Z,73.72
2022-08-16T04:04:32.472Z,75.33
2022-08-16T04:07:02.879Z,76.84
2022-08-16T04:09:35.212Z,74.67
2022-08-16T04:12:11.379Z,74.39
2022-08-16T04:14:51.685Z,76.43
2022-08-16T04:17:18.370Z,75.29
2022-08-16T04:19:46.810Z,75.04
2022-08-16T04:22:14.029Z,76.28
2022-08-16T04:24:53.262Z,76.07
2022-08-16T04:27:21.687Z,75.13
2022-08-16T04:29:52.270Z,73.82
2022-08-16T04:32:19.573Z,74.45
2022-08-16T04:34:46.830Z,77.05
2022-08-16T04:37:14.510Z,76.44
2022-08-16T04:39:47.242Z,74.77
2022-08-16T04:42:26.462Z,74.00
2022-08-16T04:44:57.657Z,73.93
2022-08-16T04:47:33.516Z,73.27
2022-08-16T04:50:06.580Z,73.29
2022-08-16T04:52:35.978Z,73.78
2022-08-16T04:55:09.559Z,74.18
2022-08-16T04:57:38.418Z,74.56
2022-08-16T05:00:31.751Z,74.52
2022-08-16T05:02:58.882Z,76.11
2022-08-16T05:05:26.049Z,75.87
2022-08-16T05:08:00.373Z,73.09
2022-08-16T05:10:29.469Z,72.87
2022-08-16T05:12:57.863Z,73.13
2022-08-16T05:15:25.253Z,72.99
2022-08-16T05:17:58.488Z,70.79
2022-08-16T05:20:38.925Z,70.48
2022-08-16T05:23:15.073Z,68.84
2022-08-16T05:25:48.331Z,69.06
2022-08-16T05:28:16.470Z,69.47
2022-08-16T05:30:43.366Z,68.79
2022-08-16T05:33:16.685Z,67.58
2022-08-16T05:35:55.585Z,66.47
2022-08-16T05:38:33.095Z,65.00
2022-08-16T05:41:06.995Z,65.96
2022-08-16T05:43:43.309Z,65.79
2022-08-16T05:46:30.108Z,66.31
2022-08-16T05:49:05.862Z,66.55
2022-08-16T05:51:38.211Z,67.79
2022-08-16T05:54:07.999Z,68.73
2022-08-16T05:56:37.697Z,67.06
2022-08-16T05:59:06.505Z,65.87
2022-08-16T06:01:38.496Z,66.74
2022-08-16T06:04:13.743Z,70.57
2022-08-16T06:06:56.575Z,68.16
2022-08-16T06:09:25.236Z,65.32
2022-08-16T06:11:52.369Z,66.03
2022-08-16T06:14:19.566Z,66.06
2022-08-16T06:16:50.834Z,65.02
2022-08-16T06:19:18.113Z,64.66
2022-08-16T06:21:45.349Z,64.33
2022-08-16T06:24:53.294Z,66.44
2022-08-16T06:26:58.742Z,66.28
2022-08-16T06:29:25.308Z,66.76
2022-08-16T06:31:53.459Z,66.14
2022-08-16T06:34:55.983Z,66.00
2022-08-16T06:37:07.541Z,65.24
2022-08-16T06:39:34.794Z,66.45
2022-08-16T06:42:18.338Z,66.15
2022-08-16T06:44:45.744Z,66.58
2022-08-16T06:47:17.048Z,63.62
2022-08-16T06:49:47.900Z,61.50
2022-08-16T06:53:00.697Z,63.10
2022-08-16T06:55:12.791Z,62.35
2022-08-16T06:57:40.734Z,61.74
2022-08-16T07:00:24.210Z,59.45
2022-08-16T07:02:53.808Z,59.79
2022-08-16T07:05:20.956Z,57.51
2022-08-16T07:07:54.164Z,57.49
2022-08-16T07:10:26.670Z,57.42
2022-08-16T07:13:04.658Z,57.57
2022-08-16T07:15:50.160Z,57.51
2022-08-16T07:18:21.397Z,56.33
2022-08-16T07:20:53.573Z,54.81
2022-08-16T07:23:21.616Z,55.24
2022-08-16T07:26:08.543Z,55.65
2022-08-16T07:28:37.603Z,55.47
2022-08-16T07:31:05.102Z,56.22
2022-08-16T07:33:51.933Z,56.11
2022-08-16T07:36:22.509Z,55.60
2022-08-16T07:38:49.923Z,53.34
2022-08-16T07:41:17.453Z,52.13
2022-08-16T07:43:46.188Z,52.48
2022-08-16T07:46:38.470Z,53.43
2022-08-16T07:49:03.090Z,54.18
2022-08-16T07:51:37.125Z,53.04
2022-08-16T07:54:10.015Z,51.79
2022-08-16T07:56:37.524Z,51.79
2022-08-16T07:59:05.370Z,51.78
2022-08-16T08:01:32.994Z,52.06
2022-08-16T08:04:02.865Z,51.23
2022-08-16T08:06:32.419Z,51.83
2022-08-16T08:09:00.322Z,52.15
2022-08-16T08:11:28.840Z,51.97
2022-08-16T08:14:03.209Z,50.63
2022-08-16T08:16:31.617Z,49.89
2022-08-16T08:19:02.434Z,50.68
2022-08-16T08:22:01.345Z,50.80
2022-08-16T08:24:18.758Z,51.61
2022-08-16T08:26:50.061Z,48.71
2022-08-16T08:29:22.799Z,47.44
2022-08-16T08:31:52.928Z,47.26
2022-08-16T08:34:22.121Z,47.60
2022-08-16T08:36:50.101Z,47.91
2022-08-16T08:39:22.121Z,46.57
2022-08-16T08:41:49.499Z,47.49
2022-08-16T08:44:30.110Z,48.17
2022-08-16T08:47:05.608Z,47.38
2022-08-16T08:49:50.386Z,45.67
2022-08-16T08:52:34.603Z,45.83
2022-08-16T08:55:11.458Z,47.18
2022-08-16T08:57:42.028Z,45.32
2022-08-16T09:00:13.157Z,44.99
2022-08-16T09:02:42.999Z,43.93
2022-08-16T09:05:15.241Z,44.59
2022-08-16T09:07:54.781Z,43.65
2022-08-16T09:10:29.433Z,42.36
2022-08-16T09:12:56.884Z,40.77
2022-08-16T09:15:24.036Z,40.84
2022-08-16T09:17:54.671Z,40.24
2022-08-16T09:20:23.775Z,39.94
2022-08-16T09:22:52.996Z,39.54
2022-08-16T09:25:26.234Z,39.38
2022-08-16T09:28:02.794Z,38.76
2022-08-16T09:30:43.846Z,39.84
2022-08-16T09:33:13.624Z,38.99
2022-08-16T09:35:42.456Z,40.40
2022-08-16T09:38:12.310Z,40.10
2022-08-16T09:40:42.497Z,38.40
2022-08-16T09:43:37.647Z,39.09
2022-08-16T09:46:44.848Z,39.17
2022-08-16T09:48:56.395Z,39.54
2022-08-16T09:51:26.257Z,40.67
2022-08-16T09:53:57.701Z,40.27
2022-08-16T09:56:31.691Z,39.03
2022-08-16T09:59:05.270Z,37.45
2022-08-16T10:01:36.684Z,35.84
2022-08-16T10:04:09.806Z,35.69
2022-08-16T10:06:54.244Z,35.08
2022-08-16T10:09:25.497Z,33.87
2022-08-16T10:12:30.486Z,33.71
2022-08-16T10:14:57.118Z,35.08
2022-08-16T10:17:24.720Z,34.55
2022-08-16T10:19:53.034Z,34.70
2022-08-16T10:22:22.952Z,34.93
2022-08-16T10:24:56.019Z,33.33
2022-08-16T10:27:28.957Z,31.54
2022-08-16T10:30:25.761Z,30.42
2022-08-16T10:32:55.043Z,29.83
2022-08-16T10:35:21.798Z,30.05
2022-08-16T10:37:50.178Z,29.78
2022-08-16T10:40:29.344Z,27.77
2022-08-16T10:42:59.943Z,30.13
2022-08-16T10:45:29.289Z,29.70
2022-08-16T10:48:27.290Z,30.30
2022-08-16T10:50:57.843Z,30.25
2022-08-16T10:53:32.959Z,28.64
2022-08-16T10:56:02.726Z,29.00
2022-08-16T10:58:34.042Z,27.01
2022-08-16T11:01:25.061Z,27.11
2022-08-16T11:03:54.445Z,28.32
2022-08-16T11:06:26.902Z,28.40
2022-08-16T11:14:29.430Z,30.34
2022-08-16T11:17:09.562Z,32.25
2022-08-16T11:20:00.627Z,34.72
2022-08-16T11:22:47.073Z,33.76
2022-08-16T11:25:57.904Z,34.54
2022-08-16T11:28:03.285Z,30.46
2022-08-16T11:30:39.172Z,32.26
2022-08-16T11:33:07.324Z,43.20
2022-08-16T11:38:46.621Z,48.37
2022-08-16T11:41:09.810Z,51.54
2022-08-16T11:43:38.879Z,53.08
2022-08-16T11:46:43.764Z,53.29
2022-08-16T11:48:57.119Z,54.71
2022-08-16T11:51:23.675Z,55.06
2022-08-16T11:53:50.263Z,52.85
2022-08-16T11:56:19.761Z,55.23
2022-08-16T11:58:56.979Z,58.12
2022-08-16T12:01:29.574Z,61.11
2022-08-16T12:04:11.139Z,60.61
2022-08-16T12:06:40.417Z,64.55
2022-08-16T12:09:08.065Z,66.36
2022-08-16T12:11:36.760Z,64.10
2022-08-16T12:14:07.294Z,65.67
2022-08-16T12:16:35.610Z,65.35
2022-08-16T12:19:10.424Z,67.04
2022-08-16T12:21:58.281Z,67.69
2022-08-16T12:24:26.291Z,68.89
2022-08-16T12:26:54.154Z,69.19
2022-08-16T12:29:21.800Z,71.04
2022-08-16T12:32:01.186Z,72.95
2022-08-16T12:34:37.538Z,70.72
2022-08-16T12:37:15.502Z,70.14
2022-08-16T12:39:50.785Z,72.42
2022-08-16T12:42:19.434Z,69.61
2022-08-16T12:44:47.250Z,68.31
2022-08-16T12:47:32.477Z,57.13
2022-08-16T12:49:59.360Z,60.88
2022-08-16T12:52:32.628Z,59.48
2022-08-16T12:55:01.985Z,56.75
2022-08-16T12:57:36.219Z,51.27
2022-08-16T13:00:26.768Z,49.52
2022-08-16T13:03:01.986Z,52.38
2022-08-16T13:05:29.189Z,50.57
2022-08-16T13:07:58.346Z,51.67
2022-08-16T13:10:37.270Z,52.56
2022-08-16T13:13:05.949Z,54.59
2022-08-16T13:15:36.153Z,56.15
2022-08-16T13:18:24.000Z,58.15
2022-08-16T13:20:54.170Z,51.57
2022-08-16T13:23:21.480Z,51.75
2022-08-16T13:25:50.042Z,50.74
2022-08-16T13:28:18.755Z,50.21
2022-08-16T13:30:50.522Z,47.62
2022-08-16T13:33:30.191Z,45.41
2022-08-16T13:36:00.718Z,38.91
2022-08-16T13:38:31.192Z,34.43
2022-08-16T13:40:59.817Z,32.64
2022-08-16T13:43:28.775Z,28.51
2022-08-16T13:45:56.567Z,30.07
2022-08-16T13:48:26.458Z,28.40
2022-08-16T13:51:10.048Z,27.82
2022-08-16T13:53:44.129Z,28.88
2022-08-16T13:56:10.806Z,27.92
2022-08-16T13:58:54.443Z,28.23
2022-08-16T14:01:22.362Z,28.02
2022-08-16T14:03:49.241Z,24.75
2022-08-16T14:06:16.078Z,23.06
2022-08-16T14:08:58.934Z,22.88
2022-08-16T14:11:32.535Z,22.00
2022-08-16T14:13:59.417Z,21.48
2022-08-16T14:16:33.708Z,20.51
2022-08-16T14:19:00.963Z,19.23
2022-08-16T14:21:35.500Z,18.92
2022-08-16T14:24:07.906Z,19.10
2022-08-16T14:26:49.701Z,19.79
2022-08-16T14:31:53.677Z,20.48
2022-08-16T14:34:20.856Z,20.40
2022-08-16T14:36:47.411Z,19.74
2022-08-16T14:39:18.719Z,20.57
2022-08-16T14:41:45.261Z,21.63
2022-08-16T14:44:12.170Z,20.87
2022-08-16T14:46:40.334Z,21.62
2022-08-16T14:49:09.733Z,22.75
2022-08-16T14:51:36.652Z,23.19
2022-08-16T14:54:05.518Z,23.70
2022-08-16T14:56:43.129Z,25.37
2022-08-16T14:59:13.551Z,25.85
2022-08-16T15:01:57.477Z,25.06
2022-08-16T15:04:39.608Z,23.56
2022-08-16T15:07:11.035Z,24.48
2022-08-16T15:09:44.126Z,26.78
2022-08-16T15:12:32.721Z,28.34
2022-08-16T15:15:01.646Z,27.71
2022-08-16T15:17:33.971Z,28.71
2022-08-16T15:20:09.216Z,28.04
2022-08-16T15:22:42.900Z,28.61
2022-08-16T15:25:21.819Z,28.62
2022-08-16T15:27:55.448Z,28.41
2022-08-16T15:30:58.089Z,26.82
2022-08-16T15:33:15.236Z,25.61
2022-08-16T15:35:43.479Z,26.69
2022-08-16T15:38:10.783Z,25.88
2022-08-16T15:40:59.015Z,24.61
2022-08-16T15:43:33.935Z,26.64
2022-08-16T15:46:35.502Z,24.82
2022-08-16T15:49:13.314Z,22.99
2022-08-16T15:51:41.291Z,22.41
2022-08-16T15:54:16.235Z,20.88
2022-08-16T15:57:00.217Z,19.67
2022-08-16T15:59:47.939Z,18.96
2022-08-16T16:02:27.218Z,18.34
2022-08-16T16:04:54.526Z,20.32
2022-08-16T16:07:22.202Z,22.28
2022-08-16T16:09:48.931Z,24.17
2022-08-16T16:12:50.238Z,25.99
2022-08-16T16:15:06.520Z,23.41
2022-08-16T16:17:35.494Z,25.17
2022-08-16T16:20:13.768Z,25.19
2022-08-16T16:22:43.474Z,25.34
2022-08-16T16:25:12.538Z,25.20
2022-08-16T16:27:39.462Z,25.59
2022-08-16T16:30:11.268Z,26.08
2022-08-16T16:32:58.255Z,27.42
2022-08-16T16:35:32.768Z,28.71
2022-08-16T16:38:00.148Z,29.84
2022-08-16T16:40:32.217Z,29.80
2022-08-16T16:43:00.057Z,29.61
2022-08-16T16:45:33.490Z,29.24
2022-08-16T16:48:11.702Z,29.14
2022-08-16T16:50:44.490Z,29.37
2022-08-16T16:53:16.732Z,29.69
2022-08-16T16:55:47.719Z,30.31
2022-08-16T16:58:43.411Z,30.28
2022-08-16T17:01:10.819Z,30.17
2022-08-16T17:03:38.630Z,28.60
2022-08-16T17:06:09.347Z,29.10
2022-08-16T17:08:40.943Z,29.71
2022-08-16T17:11:09.739Z,31.54
2022-08-16T17:13:37.019Z,32.48
2022-08-16T17:16:04.978Z,33.53
2022-08-16T17:19:14.570Z,31.56
2022-08-16T17:21:18.677Z,32.86
2022-08-16T17:23:58.922Z,33.57
2022-08-16T17:26:33.965Z,33.37
2022-08-16T17:29:02.117Z,33.61
2022-08-16T17:31:40.632Z,34.19
2022-08-16T17:34:30.764Z,35.29
2022-08-16T17:36:54.730Z,35.32
2022-08-16T17:39:21.570Z,35.71
2022-08-16T17:41:51.110Z,35.38
2022-08-16T17:44:19.310Z,36.17
2022-08-16T17:46:50.939Z,36.91
2022-08-16T17:49:18.575Z,36.56
2022-08-16T17:51:45.080Z,37.35
2022-08-16T17:54:18.320Z,37.82
2022-08-16T17:56:56.842Z,37.89
2022-08-16T17:59:24.232Z,38.54
2022-08-16T18:01:50.846Z,39.46
2022-08-16T18:04:48.647Z,40.25
2022-08-16T18:07:05.299Z,39.47
2022-08-16T18:09:31.894Z,38.26
2022-08-16T18:11:58.673Z,39.94
2022-08-16T18:14:52.191Z,41.56
2022-08-16T18:17:12.967Z,42.15
2022-08-16T18:19:39.559Z,41.31
2022-08-16T18:22:18.227Z,43.40
2022-08-16T18:24:49.579Z,43.13
2022-08-16T18:27:26.589Z,41.94
2022-08-16T18:29:54.108Z,41.71
2022-08-16T18:32:24.912Z,41.45
2022-08-16T18:34:54.512Z,42.02
2022-08-16T18:37:24.586Z,44.04
2022-08-16T18:39:51.156Z,44.83
2022-08-16T18:42:17.948Z,44.73
2022-08-16T18:44:44.799Z,44.30
2022-08-16T18:47:11.419Z,45.70
2022-08-16T18:49:38.336Z,44.54
2022-08-16T18:52:05.589Z,44.65
2022-08-16T18:54:33.388Z,45.30
2022-08-16T18:57:03.395Z,45.65
2022-08-16T18:59:33.210Z,46.87
2022-08-16T19:02:05.145Z,49.34
2022-08-16T19:04:48.045Z,50.60
2022-08-16T19:07:30.527Z,47.80
2022-08-16T19:09:59.584Z,48.90
2022-08-16T19:12:37.781Z,50.29
2022-08-16T19:15:13.280Z,51.13
2022-08-16T19:17:40.203Z,52.30
2022-08-16T19:20:10.781Z,51.71
2022-08-16T19:23:01.475Z,53.20
2022-08-16T19:25:46.409Z,54.74
2022-08-16T19:28:45.902Z,54.74
2022-08-16T19:31:00.090Z,53.22
2022-08-16T19:33:26.640Z,55.90
2022-08-16T19:35:53.224Z,58.30
2022-08-16T19:38:19.944Z,57.24
2022-08-16T19:40:46.765Z,55.19
2022-08-16T19:43:13.346Z,56.61
2022-08-16T19:45:45.358Z,57.99
2022-08-16T19:48:12.764Z,58.90
2022-08-16T19:50:39.835Z,59.37
2022-08-16T19:53:13.116Z,58.67
2022-08-16T19:55:45.800Z,60.38
2022-08-16T19:58:15.456Z,60.93
2022-08-16T20:00:43.324Z,58.68
2022-08-16T20:03:15.231Z,58.71
2022-08-16T20:05:43.598Z,59.40
2022-08-16T20:08:11.353Z,58.53
2022-08-16T20:10:39.503Z,59.16
2022-08-16T20:13:20.982Z,58.71
2022-08-16T20:15:48.842Z,58.58
2022-08-16T20:18:21.311Z,58.66
2022-08-16T20:20:52.874Z,58.79
2022-08-16T20:23:24.788Z,59.34
2022-08-16T20:25:55.847Z,58.90
2022-08-16T20:28:51.822Z,58.49
2022-08-16T20:31:11.471Z,58.97
2022-08-16T20:33:38.112Z,59.66
2022-08-16T20:36:04.808Z,60.38
2022-08-16T20:38:31.477Z,59.59
2022-08-16T20:40:58.015Z,61.13
2022-08-16T20:43:24.561Z,61.70
2022-08-16T20:45:51.084Z,61.90
2022-08-16T20:48:17.619Z,62.65
2022-08-16T20:50:45.059Z,62.07
2022-08-16T20:53:11.940Z,63.22
2022-08-16T20:55:40.097Z,62.47
2022-08-16T20:58:06.659Z,62.99
2022-08-16T21:00:33.653Z,63.62
2022-08-16T21:03:01.560Z,63.36
2022-08-16T21:05:31.152Z,63.81
2022-08-16T21:07:58.598Z,63.85
2022-08-16T21:10:25.179Z,63.91
2022-08-16T21:12:57.910Z,63.89
2022-08-16T21:15:26.735Z,63.71
2022-08-16T21:17:53.786Z,64.04
2022-08-16T21:20:22.699Z,63.65
2022-08-16T21:22:55.276Z,63.25
2022-08-16T21:25:23.497Z,64.47
2022-08-16T21:28:39.523Z,63.70
2022-08-16T21:30:39.471Z,63.79
2022-08-16T21:33:12.360Z,63.87
2022-08-16T21:35:41.007Z,63.91
2022-08-16T21:38:28.665Z,64.47
2022-08-16T21:40:54.267Z,64.47
2022-08-16T21:43:22.902Z,64.36
2022-08-16T21:45:54.855Z,64.30
2022-08-16T21:48:32.645Z,63.38
2022-08-16T21:51:06.794Z,63.67
2022-08-16T21:53:33.771Z,65.13
2022-08-16T21:56:00.914Z,65.65
2022-08-16T21:58:28.593Z,67.05
2022-08-16T22:00:55.908Z,66.71
2022-08-16T22:03:23.502Z,67.51
2022-08-16T22:06:12.154Z,68.30
2022-08-16T22:08:39.509Z,69.44
2022-08-16T22:11:15.427Z,69.50
2022-08-16T22:13:41.993Z,70.36
2022-08-16T22:16:15.815Z,71.34
2022-08-16T22:18:42.314Z,72.24
2022-08-16T22:21:18.873Z,72.82
2022-08-16T22:23:45.432Z,72.91
2022-08-16T22:26:29.943Z,72.99
2022-08-16T22:29:01.926Z,73.54
2022-08-16T22:31:28.822Z,74.17
2022-08-16T22:33:58.609Z,73.81
2022-08-16T22:36:28.602Z,73.52
2022-08-16T22:39:00.625Z,73.33
2022-08-16T22:41:28.646Z,74.69
2022-08-16T22:43:55.663Z,73.63
2022-08-16T22:46:22.549Z,74.36
2022-08-16T22:48:52.210Z,75.32
2022-08-16T22:51:20.844Z,75.17
2022-08-16T22:53:47.640Z,75.42
2022-08-16T22:56:15.705Z,75.91
2022-08-16T22:58:42.442Z,76.37
2022-08-16T23:01:10.455Z,76.83
2022-08-16T23:03:37.774Z,76.85
2022-08-16T23:06:05.353Z,75.91
2022-08-16T23:08:39.859Z,76.71
2022-08-16T23:11:13.448Z,76.08
2022-08-16T23:13:50.710Z,76.72
2022-08-16T23:16:24.862Z,77.73
2022-08-16T23:18:59.503Z,78.33
2022-08-16T23:21:26.499Z,79.00
2022-08-16T23:23:53.981Z,78.49
2022-08-16T23:26:45.206Z,79.28
2022-08-16T23:29:07.600Z,79.84
2022-08-16T23:31:49.166Z,80.43
2022-08-16T23:34:16.066Z,80.78
2022-08-16T23:36:42.591Z,80.70
2022-08-16T23:39:09.182Z,80.54
2022-08-16T23:41:35.780Z,79.63
2022-08-16T23:44:02.419Z,78.32
2022-08-16T23:46:49.427Z,76.77
2022-08-16T23:49:58.438Z,77.29
2022-08-16T23:52:09.902Z,75.86
2022-08-16T23:54:36.568Z,75.78
2022-08-16T23:57:03.361Z,76.28
2022-08-16T23:59:29.932Z,75.83
